sensor_id;sensor_type;location;lat;lon;timestamp;pressure;altitude;pressure_sealevel;temperature;humidity
26657;BME280;14279;50.010;8.260;2023-04-26T00:01:10;100622.59;;;7.70;57.99
26657;BME280;14279;50.010;8.260;2023-04-26T00:03:36;100630.38;;;7.70;57.52
26657;BME280;14279;50.010;8.260;2023-04-26T00:06:01;100628.22;;;7.82;58.02
26657;BME280;14279;50.010;8.260;2023-04-26T00:08:33;100625.44;;;7.89;59.04
26657;BME280;14279;50.010;8.260;2023-04-26T00:10:58;100627.25;;;7.87;58.60
26657;BME280;14279;50.010;8.260;2023-04-26T00:13:23;100627.06;;;7.93;58.81
26657;BME280;14279;50.010;8.260;2023-04-26T00:15:48;100631.53;;;7.88;59.74
26657;BME280;14279;50.010;8.260;2023-04-26T00:18:14;100628.03;;;7.89;59.18
26657;BME280;14279;50.010;8.260;2023-04-26T00:20:39;100632.25;;;7.93;58.84
26657;BME280;14279;50.010;8.260;2023-04-26T00:23:05;100635.63;;;7.95;59.77
26657;BME280;14279;50.010;8.260;2023-04-26T00:25:33;100641.31;;;7.79;59.60
26657;BME280;14279;50.010;8.260;2023-04-26T00:27:58;100637.19;;;7.72;60.27
26657;BME280;14279;50.010;8.260;2023-04-26T00:30:23;100640.00;;;7.64;59.77
26657;BME280;14279;50.010;8.260;2023-04-26T00:32:49;100639.13;;;7.65;59.71
26657;BME280;14279;50.010;8.260;2023-04-26T00:35:14;100631.47;;;7.61;60.37
26657;BME280;14279;50.010;8.260;2023-04-26T00:37:39;100628.97;;;7.58;61.01
26657;BME280;14279;50.010;8.260;2023-04-26T00:40:05;100624.63;;;7.58;61.64
26657;BME280;14279;50.010;8.260;2023-04-26T00:42:31;100629.72;;;7.61;61.25
26657;BME280;14279;50.010;8.260;2023-04-26T00:44:56;100635.63;;;7.66;60.15
26657;BME280;14279;50.010;8.260;2023-04-26T00:47:23;100629.31;;;7.75;58.42
26657;BME280;14279;50.010;8.260;2023-04-26T00:49:49;100635.53;;;7.70;60.51
26657;BME280;14279;50.010;8.260;2023-04-26T00:52:15;100630.72;;;7.57;60.29
26657;BME280;14279;50.010;8.260;2023-04-26T00:54:40;100636.50;;;7.35;60.36
26657;BME280;14279;50.010;8.260;2023-04-26T00:57:06;100635.41;;;7.44;59.85
26657;BME280;14279;50.010;8.260;2023-04-26T00:59:34;100635.41;;;7.44;60.18
26657;BME280;14279;50.010;8.260;2023-04-26T01:02:01;100631.38;;;7.34;60.85
26657;BME280;14279;50.010;8.260;2023-04-26T01:04:27;100629.78;;;7.30;61.74
26657;BME280;14279;50.010;8.260;2023-04-26T01:06:54;100640.44;;;7.19;61.57
26657;BME280;14279;50.010;8.260;2023-04-26T01:09:20;100628.91;;;7.29;61.47
26657;BME280;14279;50.010;8.260;2023-04-26T01:11:46;100637.63;;;7.27;61.08
26657;BME280;14279;50.010;8.260;2023-04-26T01:14:13;100632.47;;;7.25;60.73
26657;BME280;14279;50.010;8.260;2023-04-26T01:16:39;100635.88;;;7.27;59.34
26657;BME280;14279;50.010;8.260;2023-04-26T01:19:11;100628.91;;;7.29;60.04
26657;BME280;14279;50.010;8.260;2023-04-26T01:21:38;100639.25;;;7.31;60.72
26657;BME280;14279;50.010;8.260;2023-04-26T01:24:03;100637.75;;;7.22;60.57
26657;BME280;14279;50.010;8.260;2023-04-26T01:26:29;100634.38;;;7.20;61.00
26657;BME280;14279;50.010;8.260;2023-04-26T01:28:54;100635.44;;;7.11;61.31
26657;BME280;14279;50.010;8.260;2023-04-26T01:31:19;100637.94;;;6.83;63.05
26657;BME280;14279;50.010;8.260;2023-04-26T01:33:45;100636.66;;;6.65;63.77
26657;BME280;14279;50.010;8.260;2023-04-26T01:36:10;100638.34;;;6.66;63.68
26657;BME280;14279;50.010;8.260;2023-04-26T01:38:36;100639.16;;;6.68;63.31
26657;BME280;14279;50.010;8.260;2023-04-26T01:41:01;100646.03;;;6.70;63.08
26657;BME280;14279;50.010;8.260;2023-04-26T01:43:26;100646.72;;;6.75;63.39
26657;BME280;14279;50.010;8.260;2023-04-26T01:45:52;100641.94;;;6.95;63.45
26657;BME280;14279;50.010;8.260;2023-04-26T01:48:17;100640.81;;;7.05;62.24
26657;BME280;14279;50.010;8.260;2023-04-26T01:50:42;100648.69;;;7.00;64.01
26657;BME280;14279;50.010;8.260;2023-04-26T01:53:07;100636.38;;;7.10;62.58
26657;BME280;14279;50.010;8.260;2023-04-26T01:55:33;100642.66;;;7.00;63.38
26657;BME280;14279;50.010;8.260;2023-04-26T01:57:58;100644.66;;;6.90;62.85
26657;BME280;14279;50.010;8.260;2023-04-26T02:00:27;100647.38;;;6.84;64.09
26657;BME280;14279;50.010;8.260;2023-04-26T02:02:56;100644.00;;;6.82;64.25
26657;BME280;14279;50.010;8.260;2023-04-26T02:05:22;100653.59;;;6.76;64.58
26657;BME280;14279;50.010;8.260;2023-04-26T02:07:47;100651.81;;;6.79;64.64
26657;BME280;14279;50.010;8.260;2023-04-26T02:10:13;100654.69;;;6.68;65.13
26657;BME280;14279;50.010;8.260;2023-04-26T02:12:38;100651.22;;;6.69;64.11
26657;BME280;14279;50.010;8.260;2023-04-26T02:15:04;100647.34;;;6.51;64.47
26657;BME280;14279;50.010;8.260;2023-04-26T02:17:31;100646.25;;;6.61;64.21
26657;BME280;14279;50.010;8.260;2023-04-26T02:19:56;100650.78;;;6.51;64.94
26657;BME280;14279;50.010;8.260;2023-04-26T02:22:22;100649.03;;;6.53;65.46
26657;BME280;14279;50.010;8.260;2023-04-26T02:24:49;100648.28;;;6.48;64.74
26657;BME280;14279;50.010;8.260;2023-04-26T02:27:15;100640.41;;;6.53;64.71
26657;BME280;14279;50.010;8.260;2023-04-26T02:29:41;100649.34;;;6.39;65.38
26657;BME280;14279;50.010;8.260;2023-04-26T02:32:06;100646.66;;;6.44;65.49
26657;BME280;14279;50.010;8.260;2023-04-26T02:34:32;100643.16;;;6.46;65.34
26657;BME280;14279;50.010;8.260;2023-04-26T02:36:57;100643.09;;;6.48;66.01
26657;BME280;14279;50.010;8.260;2023-04-26T02:39:22;100645.56;;;6.53;65.78
26657;BME280;14279;50.010;8.260;2023-04-26T02:41:48;100641.28;;;6.52;65.45
26657;BME280;14279;50.010;8.260;2023-04-26T02:44:13;100643.88;;;6.52;65.75
26657;BME280;14279;50.010;8.260;2023-04-26T02:46:38;100641.25;;;6.53;64.84
26657;BME280;14279;50.010;8.260;2023-04-26T02:49:04;100642.97;;;6.53;65.18
26657;BME280;14279;50.010;8.260;2023-04-26T02:51:30;100644.75;;;6.52;64.81
26657;BME280;14279;50.010;8.260;2023-04-26T02:53:56;100642.00;;;6.58;64.97
26657;BME280;14279;50.010;8.260;2023-04-26T02:56:22;100637.66;;;6.59;64.49
26657;BME280;14279;50.010;8.260;2023-04-26T02:58:47;100642.16;;;6.51;64.85
26657;BME280;14279;50.010;8.260;2023-04-26T03:01:12;100639.72;;;6.46;64.95
26657;BME280;14279;50.010;8.260;2023-04-26T03:03:38;100642.16;;;6.52;64.33
26657;BME280;14279;50.010;8.260;2023-04-26T03:06:04;100643.84;;;6.53;64.13
26657;BME280;14279;50.010;8.260;2023-04-26T03:08:29;100639.69;;;6.47;64.90
26657;BME280;14279;50.010;8.260;2023-04-26T03:10:55;100636.16;;;6.50;63.98
26657;BME280;14279;50.010;8.260;2023-04-26T03:13:22;100639.44;;;6.57;63.99
26657;BME280;14279;50.010;8.260;2023-04-26T03:15:47;100636.28;;;6.45;63.94
26657;BME280;14279;50.010;8.260;2023-04-26T03:18:13;100634.72;;;6.38;64.79
26657;BME280;14279;50.010;8.260;2023-04-26T03:20:39;100629.69;;;6.34;65.60
26657;BME280;14279;50.010;8.260;2023-04-26T03:23:05;100633.78;;;6.41;64.94
26657;BME280;14279;50.010;8.260;2023-04-26T03:25:32;100628.19;;;6.23;65.29
26657;BME280;14279;50.010;8.260;2023-04-26T03:27:57;100632.53;;;6.21;65.94
26657;BME280;14279;50.010;8.260;2023-04-26T03:30:22;100630.88;;;6.19;65.86
26657;BME280;14279;50.010;8.260;2023-04-26T03:32:47;100629.97;;;6.21;66.55
26657;BME280;14279;50.010;8.260;2023-04-26T03:35:13;100626.47;;;6.24;66.15
26657;BME280;14279;50.010;8.260;2023-04-26T03:37:38;100633.75;;;6.06;66.08
26657;BME280;14279;50.010;8.260;2023-04-26T03:40:06;100632.78;;;6.10;66.06
26657;BME280;14279;50.010;8.260;2023-04-26T03:42:32;100633.47;;;6.19;65.97
26657;BME280;14279;50.010;8.260;2023-04-26T03:44:57;100631.91;;;6.11;65.88
26657;BME280;14279;50.010;8.260;2023-04-26T03:47:23;100629.25;;;6.14;65.66
26657;BME280;14279;50.010;8.260;2023-04-26T03:49:48;100631.41;;;6.33;64.63
26657;BME280;14279;50.010;8.260;2023-04-26T03:52:13;100635.44;;;6.09;64.92
26657;BME280;14279;50.010;8.260;2023-04-26T03:54:38;100634.22;;;6.24;63.87
26657;BME280;14279;50.010;8.260;2023-04-26T03:57:04;100622.31;;;6.16;64.84
26657;BME280;14279;50.010;8.260;2023-04-26T03:59:29;100623.34;;;6.09;64.29
26657;BME280;14279;50.010;8.260;2023-04-26T04:01:54;100626.06;;;6.03;64.81
26657;BME280;14279;50.010;8.260;2023-04-26T04:04:19;100627.59;;;6.12;64.85
26657;BME280;14279;50.010;8.260;2023-04-26T04:06:45;100629.00;;;6.25;65.35
26657;BME280;14279;50.010;8.260;2023-04-26T04:09:11;100626.28;;;6.31;65.09
26657;BME280;14279;50.010;8.260;2023-04-26T04:11:36;100621.19;;;6.27;65.53
26657;BME280;14279;50.010;8.260;2023-04-26T04:14:01;100622.28;;;6.18;66.10
26657;BME280;14279;50.010;8.260;2023-04-26T04:16:27;100625.22;;;6.03;66.26
26657;BME280;14279;50.010;8.260;2023-04-26T04:18:52;100630.47;;;5.98;66.41
26657;BME280;14279;50.010;8.260;2023-04-26T04:21:17;100623.78;;;5.89;66.16
26657;BME280;14279;50.010;8.260;2023-04-26T04:23:43;100630.56;;;5.93;66.36
26657;BME280;14279;50.010;8.260;2023-04-26T04:26:11;100623.84;;;5.86;66.18
26657;BME280;14279;50.010;8.260;2023-04-26T04:28:40;100630.72;;;5.87;66.55
26657;BME280;14279;50.010;8.260;2023-04-26T04:31:37;100638.78;;;5.71;66.95
26657;BME280;14279;50.010;8.260;2023-04-26T04:34:04;100638.72;;;5.75;66.98
26657;BME280;14279;50.010;8.260;2023-04-26T04:36:29;100632.56;;;5.80;66.52
26657;BME280;14279;50.010;8.260;2023-04-26T04:38:55;100642.00;;;5.83;67.17
26657;BME280;14279;50.010;8.260;2023-04-26T04:41:20;100642.09;;;5.36;68.52
26657;BME280;14279;50.010;8.260;2023-04-26T04:43:46;100648.41;;;5.21;68.49
26657;BME280;14279;50.010;8.260;2023-04-26T04:46:11;100660.75;;;5.06;69.46
26657;BME280;14279;50.010;8.260;2023-04-26T04:48:37;100660.88;;;4.97;69.32
26657;BME280;14279;50.010;8.260;2023-04-26T04:51:03;100671.19;;;4.99;69.95
26657;BME280;14279;50.010;8.260;2023-04-26T04:53:28;100667.88;;;4.92;70.47
26657;BME280;14279;50.010;8.260;2023-04-26T04:55:53;100672.97;;;4.96;70.92
26657;BME280;14279;50.010;8.260;2023-04-26T04:58:18;100676.50;;;4.91;70.81
26657;BME280;14279;50.010;8.260;2023-04-26T05:00:44;100672.03;;;5.01;70.82
26657;BME280;14279;50.010;8.260;2023-04-26T05:03:10;100671.59;;;4.77;71.98
26657;BME280;14279;50.010;8.260;2023-04-26T05:06:05;100680.72;;;4.95;71.08
26657;BME280;14279;50.010;8.260;2023-04-26T05:08:32;100684.16;;;4.94;70.65
26657;BME280;14279;50.010;8.260;2023-04-26T05:10:57;100680.59;;;5.01;70.72
26657;BME280;14279;50.010;8.260;2023-04-26T05:13:23;100681.28;;;5.13;69.94
26657;BME280;14279;50.010;8.260;2023-04-26T05:15:48;100684.69;;;5.15;70.05
26657;BME280;14279;50.010;8.260;2023-04-26T05:18:13;100678.84;;;5.03;70.29
26657;BME280;14279;50.010;8.260;2023-04-26T05:20:38;100682.72;;;5.26;69.50
26657;BME280;14279;50.010;8.260;2023-04-26T05:23:04;100682.47;;;5.41;69.04
26657;BME280;14279;50.010;8.260;2023-04-26T05:25:29;100686.59;;;5.50;69.17
26657;BME280;14279;50.010;8.260;2023-04-26T05:27:54;100687.41;;;5.52;69.33
26657;BME280;14279;50.010;8.260;2023-04-26T05:30:19;100686.53;;;5.53;68.57
26657;BME280;14279;50.010;8.260;2023-04-26T05:32:45;100690.66;;;5.62;68.53
26657;BME280;14279;50.010;8.260;2023-04-26T05:35:10;100686.31;;;5.63;68.67
26657;BME280;14279;50.010;8.260;2023-04-26T05:37:35;100686.69;;;5.88;68.10
26657;BME280;14279;50.010;8.260;2023-04-26T05:40:01;100690.03;;;5.92;67.87
26657;BME280;14279;50.010;8.260;2023-04-26T05:42:26;100694.19;;;6.00;67.94
26657;BME280;14279;50.010;8.260;2023-04-26T05:44:58;100697.09;;;6.24;67.82
26657;BME280;14279;50.010;8.260;2023-04-26T05:47:23;100700.44;;;6.66;66.67
26657;BME280;14279;50.010;8.260;2023-04-26T05:49:49;100703.97;;;6.63;65.64
26657;BME280;14279;50.010;8.260;2023-04-26T05:52:14;100707.69;;;6.51;65.85
26657;BME280;14279;50.010;8.260;2023-04-26T05:54:40;100711.59;;;6.68;65.32
26657;BME280;14279;50.010;8.260;2023-04-26T05:57:05;100710.09;;;6.94;64.43
26657;BME280;14279;50.010;8.260;2023-04-26T05:59:35;100707.50;;;6.95;63.59
26657;BME280;14279;50.010;8.260;2023-04-26T06:02:00;100715.41;;;6.89;63.92
26657;BME280;14279;50.010;8.260;2023-04-26T06:04:25;100723.13;;;6.90;64.88
26657;BME280;14279;50.010;8.260;2023-04-26T06:06:50;100723.66;;;7.05;64.10
26657;BME280;14279;50.010;8.260;2023-04-26T06:09:16;100716.28;;;7.22;63.99
26657;BME280;14279;50.010;8.260;2023-04-26T06:11:41;100721.91;;;7.37;63.30
26657;BME280;14279;50.010;8.260;2023-04-26T06:14:06;100717.09;;;7.56;62.27
26657;BME280;14279;50.010;8.260;2023-04-26T06:16:31;100725.13;;;7.47;62.46
26657;BME280;14279;50.010;8.260;2023-04-26T06:18:57;100721.75;;;7.45;62.44
26657;BME280;14279;50.010;8.260;2023-04-26T06:21:22;100725.59;;;7.61;62.19
26657;BME280;14279;50.010;8.260;2023-04-26T06:23:47;100732.69;;;7.85;61.34
26657;BME280;14279;50.010;8.260;2023-04-26T06:26:12;100730.56;;;7.99;60.70
26657;BME280;14279;50.010;8.260;2023-04-26T06:28:38;100736.69;;;7.96;59.67
26657;BME280;14279;50.010;8.260;2023-04-26T06:31:03;100732.94;;;8.07;62.95
26657;BME280;14279;50.010;8.260;2023-04-26T06:33:28;100731.63;;;7.93;62.43
26657;BME280;14279;50.010;8.260;2023-04-26T06:35:53;100736.41;;;8.06;62.59
26657;BME280;14279;50.010;8.260;2023-04-26T06:38:19;100740.22;;;8.24;60.07
26657;BME280;14279;50.010;8.260;2023-04-26T06:40:44;100733.00;;;8.34;59.06
26657;BME280;14279;50.010;8.260;2023-04-26T06:43:09;100736.75;;;8.23;59.35
26657;BME280;14279;50.010;8.260;2023-04-26T06:45:35;100733.09;;;8.31;58.85
26657;BME280;14279;50.010;8.260;2023-04-26T06:48:00;100725.03;;;8.40;58.73
26657;BME280;14279;50.010;8.260;2023-04-26T06:50:27;100721.81;;;8.60;58.13
26657;BME280;14279;50.010;8.260;2023-04-26T06:52:52;100719.09;;;8.65;58.21
26657;BME280;14279;50.010;8.260;2023-04-26T06:55:17;100724.41;;;8.87;57.41
26657;BME280;14279;50.010;8.260;2023-04-26T06:57:43;100722.53;;;8.65;57.33
26657;BME280;14279;50.010;8.260;2023-04-26T07:00:09;100732.56;;;8.48;57.33
26657;BME280;14279;50.010;8.260;2023-04-26T07:02:34;100731.13;;;8.67;56.93
26657;BME280;14279;50.010;8.260;2023-04-26T07:04:59;100737.75;;;8.76;56.55
26657;BME280;14279;50.010;8.260;2023-04-26T07:07:25;100731.47;;;8.83;56.34
26657;BME280;14279;50.010;8.260;2023-04-26T07:09:51;100740.31;;;8.78;55.83
26657;BME280;14279;50.010;8.260;2023-04-26T07:12:16;100736.31;;;8.67;55.69
26657;BME280;14279;50.010;8.260;2023-04-26T07:14:42;100732.66;;;8.73;56.25
26657;BME280;14279;50.010;8.260;2023-04-26T07:17:11;100731.50;;;8.82;56.47
26657;BME280;14279;50.010;8.260;2023-04-26T07:19:36;100733.72;;;8.94;55.96
26657;BME280;14279;50.010;8.260;2023-04-26T07:22:02;100730.59;;;8.83;55.52
26657;BME280;14279;50.010;8.260;2023-04-26T07:24:27;100728.19;;;9.03;55.18
26657;BME280;14279;50.010;8.260;2023-04-26T07:26:52;100725.81;;;9.48;54.73
26657;BME280;14279;50.010;8.260;2023-04-26T07:29:18;100722.94;;;9.80;54.46
26657;BME280;14279;50.010;8.260;2023-04-26T07:31:44;100723.34;;;9.69;54.64
26657;BME280;14279;50.010;8.260;2023-04-26T07:34:09;100722.81;;;9.59;54.92
26657;BME280;14279;50.010;8.260;2023-04-26T07:36:35;100721.75;;;9.39;54.60
26657;BME280;14279;50.010;8.260;2023-04-26T07:39:00;100725.53;;;9.56;54.49
26657;BME280;14279;50.010;8.260;2023-04-26T07:42:02;100709.44;;;9.46;55.21
26657;BME280;14279;50.010;8.260;2023-04-26T07:45:06;100710.06;;;9.27;55.85
26657;BME280;14279;50.010;8.260;2023-04-26T07:47:32;100714.84;;;9.40;54.85
26657;BME280;14279;50.010;8.260;2023-04-26T07:49:57;100714.56;;;9.47;54.40
26657;BME280;14279;50.010;8.260;2023-04-26T07:52:23;100706.25;;;9.61;53.41
26657;BME280;14279;50.010;8.260;2023-04-26T07:54:48;100706.31;;;9.60;53.39
26657;BME280;14279;50.010;8.260;2023-04-26T07:57:14;100704.44;;;9.87;52.19
26657;BME280;14279;50.010;8.260;2023-04-26T07:59:39;100700.44;;;9.78;52.98
26657;BME280;14279;50.010;8.260;2023-04-26T08:02:05;100706.72;;;9.73;54.37
26657;BME280;14279;50.010;8.260;2023-04-26T08:04:32;100701.84;;;9.87;51.41
26657;BME280;14279;50.010;8.260;2023-04-26T08:06:58;100709.56;;;9.89;49.96
26657;BME280;14279;50.010;8.260;2023-04-26T08:09:25;100709.28;;;10.20;48.93
26657;BME280;14279;50.010;8.260;2023-04-26T08:11:50;100715.41;;;10.18;48.57
26657;BME280;14279;50.010;8.260;2023-04-26T08:14:15;100716.94;;;10.23;48.84
26657;BME280;14279;50.010;8.260;2023-04-26T08:16:42;100719.50;;;10.47;47.52
26657;BME280;14279;50.010;8.260;2023-04-26T08:19:08;100714.34;;;10.68;47.09
26657;BME280;14279;50.010;8.260;2023-04-26T08:21:33;100705.81;;;10.85;46.66
26657;BME280;14279;50.010;8.260;2023-04-26T08:23:58;100707.84;;;10.99;46.56
26657;BME280;14279;50.010;8.260;2023-04-26T08:26:24;100706.56;;;10.68;46.23
26657;BME280;14279;50.010;8.260;2023-04-26T08:28:49;100709.03;;;10.92;45.85
26657;BME280;14279;50.010;8.260;2023-04-26T08:31:15;100707.28;;;10.92;46.14
26657;BME280;14279;50.010;8.260;2023-04-26T08:33:41;100706.50;;;10.90;45.74
26657;BME280;14279;50.010;8.260;2023-04-26T08:36:06;100703.19;;;10.87;45.54
26657;BME280;14279;50.010;8.260;2023-04-26T08:38:32;100699.06;;;10.81;45.65
26657;BME280;14279;50.010;8.260;2023-04-26T08:41:01;100706.81;;;11.24;45.26
26657;BME280;14279;50.010;8.260;2023-04-26T08:43:27;100699.81;;;11.45;45.00
26657;BME280;14279;50.010;8.260;2023-04-26T08:45:53;100696.63;;;11.38;44.73
26657;BME280;14279;50.010;8.260;2023-04-26T08:48:19;100696.28;;;11.46;43.39
26657;BME280;14279;50.010;8.260;2023-04-26T08:50:46;100693.69;;;11.84;42.49
26657;BME280;14279;50.010;8.260;2023-04-26T08:53:16;100696.09;;;11.89;42.74
26657;BME280;14279;50.010;8.260;2023-04-26T08:55:46;100702.38;;;11.85;42.83
26657;BME280;14279;50.010;8.260;2023-04-26T08:58:12;100700.41;;;11.90;41.74
26657;BME280;14279;50.010;8.260;2023-04-26T09:00:37;100695.81;;;11.95;40.79
26657;BME280;14279;50.010;8.260;2023-04-26T09:03:02;100697.03;;;11.88;40.39
26657;BME280;14279;50.010;8.260;2023-04-26T09:05:28;100699.97;;;11.80;40.38
26657;BME280;14279;50.010;8.260;2023-04-26T09:07:59;100698.50;;;11.94;39.88
26657;BME280;14279;50.010;8.260;2023-04-26T09:10:26;100695.09;;;11.92;40.15
26657;BME280;14279;50.010;8.260;2023-04-26T09:12:53;100691.13;;;12.03;39.87
26657;BME280;14279;50.010;8.260;2023-04-26T09:15:20;100692.97;;;12.19;38.30
26657;BME280;14279;50.010;8.260;2023-04-26T09:17:47;100691.50;;;11.94;38.00
26657;BME280;14279;50.010;8.260;2023-04-26T09:20:17;100687.00;;;11.60;38.75
26657;BME280;14279;50.010;8.260;2023-04-26T09:22:45;100689.31;;;11.07;39.54
26657;BME280;14279;50.010;8.260;2023-04-26T09:25:11;100693.47;;;10.90;39.77
26657;BME280;14279;50.010;8.260;2023-04-26T09:27:41;100688.72;;;11.00;40.10
26657;BME280;14279;50.010;8.260;2023-04-26T09:30:14;100677.56;;;11.76;39.40
26657;BME280;14279;50.010;8.260;2023-04-26T09:32:54;100676.44;;;11.82;38.44
26657;BME280;14279;50.010;8.260;2023-04-26T09:35:30;100672.25;;;11.58;39.43
26657;BME280;14279;50.010;8.260;2023-04-26T09:37:59;100669.81;;;12.13;39.00
26657;BME280;14279;50.010;8.260;2023-04-26T09:40:31;100673.31;;;12.66;37.48
26657;BME280;14279;50.010;8.260;2023-04-26T09:43:07;100664.50;;;12.86;36.24
26657;BME280;14279;50.010;8.260;2023-04-26T09:48:14;100678.25;;;12.18;37.21
26657;BME280;14279;50.010;8.260;2023-04-26T09:50:41;100675.72;;;11.97;37.47
26657;BME280;14279;50.010;8.260;2023-04-26T09:53:07;100668.78;;;12.35;36.26
26657;BME280;14279;50.010;8.260;2023-04-26T09:55:34;100669.09;;;11.90;37.31
26657;BME280;14279;50.010;8.260;2023-04-26T09:58:07;100662.97;;;12.10;36.83
26657;BME280;14279;50.010;8.260;2023-04-26T10:00:33;100672.97;;;12.20;36.55
26657;BME280;14279;50.010;8.260;2023-04-26T10:02:59;100674.31;;;12.46;36.13
26657;BME280;14279;50.010;8.260;2023-04-26T10:05:25;100680.78;;;11.81;36.68
26657;BME280;14279;50.010;8.260;2023-04-26T10:07:50;100668.91;;;12.14;37.40
26657;BME280;14279;50.010;8.260;2023-04-26T10:10:17;100670.34;;;12.20;36.79
26657;BME280;14279;50.010;8.260;2023-04-26T10:12:43;100665.84;;;11.85;37.26
26657;BME280;14279;50.010;8.260;2023-04-26T10:15:09;100671.06;;;11.85;38.05
26657;BME280;14279;50.010;8.260;2023-04-26T10:17:36;100674.84;;;12.16;37.60
26657;BME280;14279;50.010;8.260;2023-04-26T10:20:03;100665.00;;;12.40;36.16
26657;BME280;14279;50.010;8.260;2023-04-26T10:22:33;100664.91;;;12.42;36.96
26657;BME280;14279;50.010;8.260;2023-04-26T10:25:00;100664.94;;;12.77;36.79
26657;BME280;14279;50.010;8.260;2023-04-26T10:27:47;100656.16;;;12.96;36.35
26657;BME280;14279;50.010;8.260;2023-04-26T10:30:17;100649.28;;;12.77;36.79
26657;BME280;14279;50.010;8.260;2023-04-26T10:35:30;100660.91;;;12.17;38.08
26657;BME280;14279;50.010;8.260;2023-04-26T10:41:35;100654.13;;;12.50;36.65
26657;BME280;14279;50.010;8.260;2023-04-26T10:44:41;100630.28;;;12.91;35.11
26657;BME280;14279;50.010;8.260;2023-04-26T10:47:45;100624.84;;;12.78;35.57
26657;BME280;14279;50.010;8.260;2023-04-26T10:50:13;100627.16;;;12.31;36.09
26657;BME280;14279;50.010;8.260;2023-04-26T10:55:41;100626.28;;;13.17;35.24
26657;BME280;14279;50.010;8.260;2023-04-26T10:58:26;100620.47;;;13.62;34.07
26657;BME280;14279;50.010;8.260;2023-04-26T11:01:08;100628.75;;;13.20;34.75
26657;BME280;14279;50.010;8.260;2023-04-26T11:03:36;100620.91;;;13.20;35.36
26657;BME280;14279;50.010;8.260;2023-04-26T11:06:08;100622.69;;;13.20;34.87
26657;BME280;14279;50.010;8.260;2023-04-26T11:08:37;100614.44;;;12.94;35.72
26657;BME280;14279;50.010;8.260;2023-04-26T11:11:08;100610.75;;;12.98;35.52
26657;BME280;14279;50.010;8.260;2023-04-26T11:13:36;100613.63;;;13.10;35.10
26657;BME280;14279;50.010;8.260;2023-04-26T11:16:09;100608.50;;;13.58;34.53
26657;BME280;14279;50.010;8.260;2023-04-26T11:18:36;100607.47;;;13.11;35.18
26657;BME280;14279;50.010;8.260;2023-04-26T11:21:04;100602.41;;;13.07;35.27
26657;BME280;14279;50.010;8.260;2023-04-26T11:23:30;100606.81;;;12.89;35.30
26657;BME280;14279;50.010;8.260;2023-04-26T11:25:59;100596.53;;;13.53;34.27
26657;BME280;14279;50.010;8.260;2023-04-26T11:28:32;100599.28;;;13.01;35.29
26657;BME280;14279;50.010;8.260;2023-04-26T11:30:57;100607.00;;;12.86;35.50
26657;BME280;14279;50.010;8.260;2023-04-26T11:33:23;100603.06;;;12.61;36.19
26657;BME280;14279;50.010;8.260;2023-04-26T11:35:53;100603.19;;;12.58;36.32
26657;BME280;14279;50.010;8.260;2023-04-26T11:38:23;100601.59;;;12.89;35.88
26657;BME280;14279;50.010;8.260;2023-04-26T11:41:00;100604.94;;;12.58;36.47
26657;BME280;14279;50.010;8.260;2023-04-26T11:43:36;100593.13;;;13.02;35.71
26657;BME280;14279;50.010;8.260;2023-04-26T11:46:04;100586.72;;;13.57;34.98
26657;BME280;14279;50.010;8.260;2023-04-26T11:48:31;100580.13;;;13.66;35.04
26657;BME280;14279;50.010;8.260;2023-04-26T11:50:58;100578.84;;;13.89;35.11
26657;BME280;14279;50.010;8.260;2023-04-26T11:53:24;100577.91;;;13.10;35.35
26657;BME280;14279;50.010;8.260;2023-04-26T11:55:50;100579.09;;;13.36;34.59
26657;BME280;14279;50.010;8.260;2023-04-26T11:58:16;100569.34;;;13.56;33.96
26657;BME280;14279;50.010;8.260;2023-04-26T12:01:00;100574.41;;;13.43;34.36
26657;BME280;14279;50.010;8.260;2023-04-26T12:03:30;100572.78;;;13.73;34.22
26657;BME280;14279;50.010;8.260;2023-04-26T12:05:56;100569.81;;;13.31;34.32
26657;BME280;14279;50.010;8.260;2023-04-26T12:08:27;100572.06;;;13.55;33.71
26657;BME280;14279;50.010;8.260;2023-04-26T12:10:53;100574.94;;;13.16;34.46
26657;BME280;14279;50.010;8.260;2023-04-26T12:13:19;100581.25;;;12.96;34.73
26657;BME280;14279;50.010;8.260;2023-04-26T12:15:44;100569.44;;;13.55;34.10
26657;BME280;14279;50.010;8.260;2023-04-26T12:18:10;100561.16;;;13.78;34.37
26657;BME280;14279;50.010;8.260;2023-04-26T12:20:38;100564.53;;;13.64;35.80
26657;BME280;14279;50.010;8.260;2023-04-26T12:23:12;100576.69;;;13.49;35.26
26657;BME280;14279;50.010;8.260;2023-04-26T12:25:39;100562.00;;;13.63;35.05
26657;BME280;14279;50.010;8.260;2023-04-26T12:28:08;100559.56;;;13.44;34.65
26657;BME280;14279;50.010;8.260;2023-04-26T12:30:37;100565.88;;;13.40;35.15
26657;BME280;14279;50.010;8.260;2023-04-26T12:33:04;100568.28;;;13.91;34.29
26657;BME280;14279;50.010;8.260;2023-04-26T12:35:30;100569.03;;;14.23;34.05
26657;BME280;14279;50.010;8.260;2023-04-26T12:37:55;100566.88;;;13.85;34.02
26657;BME280;14279;50.010;8.260;2023-04-26T12:40:22;100567.34;;;13.92;34.82
26657;BME280;14279;50.010;8.260;2023-04-26T12:42:48;100568.63;;;14.31;33.86
26657;BME280;14279;50.010;8.260;2023-04-26T12:45:15;100567.88;;;14.29;33.64
26657;BME280;14279;50.010;8.260;2023-04-26T12:47:40;100566.97;;;14.45;32.23
26657;BME280;14279;50.010;8.260;2023-04-26T12:50:06;100550.88;;;14.51;32.10
26657;BME280;14279;50.010;8.260;2023-04-26T12:52:31;100560.84;;;14.89;31.40
26657;BME280;14279;50.010;8.260;2023-04-26T12:54:57;100563.56;;;14.73;32.00
26657;BME280;14279;50.010;8.260;2023-04-26T12:57:23;100559.16;;;14.28;31.97
26657;BME280;14279;50.010;8.260;2023-04-26T12:59:48;100556.31;;;14.62;32.01
26657;BME280;14279;50.010;8.260;2023-04-26T13:02:13;100561.97;;;14.70;32.16
26657;BME280;14279;50.010;8.260;2023-04-26T13:04:39;100561.03;;;14.71;31.88
26657;BME280;14279;50.010;8.260;2023-04-26T13:07:04;100562.06;;;14.24;32.57
26657;BME280;14279;50.010;8.260;2023-04-26T13:09:29;100566.84;;;14.32;32.81